sensor_id;sensor_type;location;lat;lon;timestamp;P1;durP1;ratioP1;P2;durP2;ratioP2
26277;SDS011;14000;52.056;8.510;2022-11-15T00:00:48;16.73;;;9.37;;
26277;SDS011;14000;52.056;8.510;2022-11-15T00:03:14;20.30;;;9.80;;
26277;SDS011;14000;52.056;8.510;2022-11-15T00:05:44;17.83;;;9.43;;
26277;SDS011;14000;52.056;8.510;2022-11-15T00:08:10;16.20;;;9.17;;
26277;SDS011;14000;52.056;8.510;2022-11-15T00:10:36;17.83;;;8.63;;
26277;SDS011;14000;52.056;8.510;2022-11-15T00:13:06;15.53;;;8.63;;
26277;SDS011;14000;52.056;8.510;2022-11-15T00:15:34;16.87;;;9.13;;
26277;SDS011;14000;52.056;8.510;2022-11-15T00:18:01;20.27;;;9.77;;
26277;SDS011;14000;52.056;8.510;2022-11-15T00:20:27;16.20;;;8.73;;
26277;SDS011;14000;52.056;8.510;2022-11-15T00:22:52;16.00;;;8.40;;
26277;SDS011;14000;52.056;8.510;2022-11-15T00:25:18;16.43;;;8.60;;
26277;SDS011;14000;52.056;8.510;2022-11-15T00:27:43;16.57;;;8.43;;
26277;SDS011;14000;52.056;8.510;2022-11-15T00:30:10;17.77;;;8.53;;
26277;SDS011;14000;52.056;8.510;2022-11-15T00:32:36;18.83;;;9.23;;
26277;SDS011;14000;52.056;8.510;2022-11-15T00:35:02;18.60;;;8.90;;
26277;SDS011;14000;52.056;8.510;2022-11-15T00:37:28;15.03;;;7.80;;
26277;SDS011;14000;52.056;8.510;2022-11-15T00:39:53;17.93;;;8.23;;
26277;SDS011;14000;52.056;8.510;2022-11-15T00:42:19;15.70;;;8.57;;
26277;SDS011;14000;52.056;8.510;2022-11-15T00:44:44;15.50;;;7.83;;
26277;SDS011;14000;52.056;8.510;2022-11-15T00:47:10;16.13;;;8.17;;
26277;SDS011;14000;52.056;8.510;2022-11-15T00:49:35;17.80;;;8.20;;
26277;SDS011;14000;52.056;8.510;2022-11-15T00:52:01;15.40;;;7.43;;
26277;SDS011;14000;52.056;8.510;2022-11-15T00:54:27;15.77;;;8.43;;
26277;SDS011;14000;52.056;8.510;2022-11-15T00:56:52;15.43;;;7.77;;
26277;SDS011;14000;52.056;8.510;2022-11-15T00:59:18;15.40;;;7.90;;
26277;SDS011;14000;52.056;8.510;2022-11-15T01:01:43;13.43;;;6.73;;
26277;SDS011;14000;52.056;8.510;2022-11-15T01:04:09;15.20;;;7.40;;
26277;SDS011;14000;52.056;8.510;2022-11-15T01:06:34;14.43;;;7.60;;
26277;SDS011;14000;52.056;8.510;2022-11-15T01:09:00;14.17;;;7.30;;
26277;SDS011;14000;52.056;8.510;2022-11-15T01:11:26;12.97;;;7.00;;
26277;SDS011;14000;52.056;8.510;2022-11-15T01:13:51;12.10;;;6.33;;
26277;SDS011;14000;52.056;8.510;2022-11-15T01:16:17;15.90;;;7.27;;
26277;SDS011;14000;52.056;8.510;2022-11-15T01:18:43;13.23;;;6.50;;
26277;SDS011;14000;52.056;8.510;2022-11-15T01:21:10;11.77;;;6.37;;
26277;SDS011;14000;52.056;8.510;2022-11-15T01:23:38;14.63;;;6.43;;
26277;SDS011;14000;52.056;8.510;2022-11-15T01:26:04;12.93;;;6.00;;
26277;SDS011;14000;52.056;8.510;2022-11-15T01:28:33;12.97;;;6.03;;
26277;SDS011;14000;52.056;8.510;2022-11-15T01:31:00;16.27;;;7.20;;
26277;SDS011;14000;52.056;8.510;2022-11-15T01:33:27;15.93;;;7.30;;
26277;SDS011;14000;52.056;8.510;2022-11-15T01:35:54;13.23;;;6.50;;
26277;SDS011;14000;52.056;8.510;2022-11-15T01:38:35;14.23;;;6.67;;
26277;SDS011;14000;52.056;8.510;2022-11-15T01:41:00;18.13;;;7.40;;
26277;SDS011;14000;52.056;8.510;2022-11-15T01:43:31;12.20;;;6.53;;
26277;SDS011;14000;52.056;8.510;2022-11-15T01:46:00;16.40;;;7.20;;
26277;SDS011;14000;52.056;8.510;2022-11-15T01:48:32;15.00;;;6.07;;
26277;SDS011;14000;52.056;8.510;2022-11-15T01:50:59;12.63;;;6.17;;
26277;SDS011;14000;52.056;8.510;2022-11-15T01:53:27;14.50;;;6.37;;
26277;SDS011;14000;52.056;8.510;2022-11-15T01:55:54;15.33;;;6.53;;
26277;SDS011;14000;52.056;8.510;2022-11-15T01:58:20;16.53;;;8.10;;
26277;SDS011;14000;52.056;8.510;2022-11-15T02:00:46;14.93;;;7.87;;
26277;SDS011;14000;52.056;8.510;2022-11-15T02:03:13;13.17;;;6.97;;
26277;SDS011;14000;52.056;8.510;2022-11-15T02:05:38;12.93;;;6.30;;
26277;SDS011;14000;52.056;8.510;2022-11-15T02:08:06;13.93;;;6.43;;
26277;SDS011;14000;52.056;8.510;2022-11-15T02:10:33;14.67;;;6.70;;
26277;SDS011;14000;52.056;8.510;2022-11-15T02:12:58;14.77;;;6.43;;
26277;SDS011;14000;52.056;8.510;2022-11-15T02:15:27;14.20;;;6.73;;
26277;SDS011;14000;52.056;8.510;2022-11-15T02:18:18;13.50;;;6.30;;
26277;SDS011;14000;52.056;8.510;2022-11-15T02:21:13;14.20;;;6.00;;
26277;SDS011;14000;52.056;8.510;2022-11-15T02:32:54;13.80;;;6.97;;
26277;SDS011;14000;52.056;8.510;2022-11-15T02:35:36;14.10;;;6.80;;
26277;SDS011;14000;52.056;8.510;2022-11-15T02:41:06;13.37;;;7.07;;
26277;SDS011;14000;52.056;8.510;2022-11-15T02:43:54;16.90;;;8.37;;
26277;SDS011;14000;52.056;8.510;2022-11-15T02:46:27;16.60;;;8.43;;
26277;SDS011;14000;52.056;8.510;2022-11-15T02:49:28;16.60;;;8.30;;
26277;SDS011;14000;52.056;8.510;2022-11-15T02:51:57;20.33;;;9.73;;
26277;SDS011;14000;52.056;8.510;2022-11-15T02:54:24;17.07;;;8.37;;
26277;SDS011;14000;52.056;8.510;2022-11-15T02:56:52;19.67;;;8.37;;
26277;SDS011;14000;52.056;8.510;2022-11-15T03:04:44;19.40;;;8.53;;
26277;SDS011;14000;52.056;8.510;2022-11-15T03:07:28;18.27;;;8.80;;
26277;SDS011;14000;52.056;8.510;2022-11-15T03:10:21;16.73;;;8.30;;
26277;SDS011;14000;52.056;8.510;2022-11-15T03:12:57;17.53;;;8.93;;
26277;SDS011;14000;52.056;8.510;2022-11-15T03:15:37;16.27;;;8.30;;
26277;SDS011;14000;52.056;8.510;2022-11-15T03:18:16;21.23;;;9.33;;
26277;SDS011;14000;52.056;8.510;2022-11-15T03:20:47;16.53;;;8.80;;
26277;SDS011;14000;52.056;8.510;2022-11-15T03:23:15;19.27;;;9.40;;
26277;SDS011;14000;52.056;8.510;2022-11-15T03:25:43;19.27;;;9.50;;
26277;SDS011;14000;52.056;8.510;2022-11-15T03:28:15;16.70;;;8.80;;
26277;SDS011;14000;52.056;8.510;2022-11-15T03:30:48;18.17;;;10.13;;
26277;SDS011;14000;52.056;8.510;2022-11-15T03:33:16;18.37;;;9.57;;
26277;SDS011;14000;52.056;8.510;2022-11-15T03:35:44;23.17;;;9.70;;
26277;SDS011;14000;52.056;8.510;2022-11-15T03:38:25;20.40;;;10.37;;
26277;SDS011;14000;52.056;8.510;2022-11-15T03:40:54;17.57;;;9.60;;
26277;SDS011;14000;52.056;8.510;2022-11-15T03:43:32;21.77;;;11.03;;
26277;SDS011;14000;52.056;8.510;2022-11-15T03:46:11;19.70;;;9.80;;
26277;SDS011;14000;52.056;8.510;2022-11-15T03:48:49;22.37;;;10.23;;
26277;SDS011;14000;52.056;8.510;2022-11-15T03:51:18;20.87;;;9.83;;
26277;SDS011;14000;52.056;8.510;2022-11-15T03:53:44;19.60;;;10.67;;
26277;SDS011;14000;52.056;8.510;2022-11-15T03:56:10;17.23;;;9.50;;
26277;SDS011;14000;52.056;8.510;2022-11-15T03:58:36;18.97;;;10.73;;
26277;SDS011;14000;52.056;8.510;2022-11-15T04:01:02;19.27;;;9.77;;
26277;SDS011;14000;52.056;8.510;2022-11-15T04:03:27;20.03;;;10.50;;
26277;SDS011;14000;52.056;8.510;2022-11-15T04:05:53;20.57;;;9.80;;
26277;SDS011;14000;52.056;8.510;2022-11-15T04:08:18;19.23;;;9.57;;
26277;SDS011;14000;52.056;8.510;2022-11-15T04:10:44;20.63;;;9.37;;
26277;SDS011;14000;52.056;8.510;2022-11-15T04:13:10;18.60;;;9.63;;
26277;SDS011;14000;52.056;8.510;2022-11-15T04:15:35;19.00;;;10.77;;
26277;SDS011;14000;52.056;8.510;2022-11-15T04:18:01;18.53;;;10.30;;
26277;SDS011;14000;52.056;8.510;2022-11-15T04:20:27;18.87;;;10.30;;
26277;SDS011;14000;52.056;8.510;2022-11-15T04:23:17;19.20;;;10.67;;
26277;SDS011;14000;52.056;8.510;2022-11-15T04:26:04;19.03;;;10.87;;
26277;SDS011;14000;52.056;8.510;2022-11-15T04:28:32;20.77;;;11.50;;
26277;SDS011;14000;52.056;8.510;2022-11-15T04:30:58;22.07;;;11.43;;
26277;SDS011;14000;52.056;8.510;2022-11-15T04:33:24;21.47;;;10.43;;
26277;SDS011;14000;52.056;8.510;2022-11-15T04:35:53;18.83;;;10.23;;
26277;SDS011;14000;52.056;8.510;2022-11-15T04:38:37;19.37;;;10.63;;
26277;SDS011;14000;52.056;8.510;2022-11-15T04:41:02;18.50;;;9.87;;
26277;SDS011;14000;52.056;8.510;2022-11-15T04:43:28;16.93;;;9.17;;
26277;SDS011;14000;52.056;8.510;2022-11-15T04:45:54;18.77;;;10.40;;
26277;SDS011;14000;52.056;8.510;2022-11-15T04:48:20;17.90;;;9.80;;
26277;SDS011;14000;52.056;8.510;2022-11-15T04:50:49;17.93;;;10.27;;
26277;SDS011;14000;52.056;8.510;2022-11-15T04:53:15;18.60;;;9.97;;
26277;SDS011;14000;52.056;8.510;2022-11-15T04:55:43;18.53;;;10.77;;
26277;SDS011;14000;52.056;8.510;2022-11-15T04:58:10;18.40;;;10.00;;
26277;SDS011;14000;52.056;8.510;2022-11-15T05:00:36;16.33;;;9.43;;
26277;SDS011;14000;52.056;8.510;2022-11-15T05:03:01;18.60;;;10.87;;
26277;SDS011;14000;52.056;8.510;2022-11-15T05:05:45;18.60;;;10.30;;
26277;SDS011;14000;52.056;8.510;2022-11-15T05:08:11;19.10;;;10.20;;
26277;SDS011;14000;52.056;8.510;2022-11-15T05:10:36;18.10;;;9.97;;
26277;SDS011;14000;52.056;8.510;2022-11-15T05:13:02;22.43;;;11.17;;
26277;SDS011;14000;52.056;8.510;2022-11-15T05:15:28;20.13;;;10.67;;
26277;SDS011;14000;52.056;8.510;2022-11-15T05:17:57;21.10;;;11.03;;
26277;SDS011;14000;52.056;8.510;2022-11-15T05:20:24;21.63;;;10.60;;
26277;SDS011;14000;52.056;8.510;2022-11-15T05:22:49;20.70;;;11.00;;
26277;SDS011;14000;52.056;8.510;2022-11-15T05:25:15;17.67;;;9.90;;
26277;SDS011;14000;52.056;8.510;2022-11-15T05:27:41;20.50;;;10.30;;
26277;SDS011;14000;52.056;8.510;2022-11-15T05:30:06;20.07;;;10.50;;
26277;SDS011;14000;52.056;8.510;2022-11-15T05:32:32;20.63;;;10.37;;
26277;SDS011;14000;52.056;8.510;2022-11-15T05:34:58;19.27;;;9.43;;
26277;SDS011;14000;52.056;8.510;2022-11-15T05:37:24;21.67;;;10.53;;
26277;SDS011;14000;52.056;8.510;2022-11-15T05:39:49;18.20;;;9.97;;
26277;SDS011;14000;52.056;8.510;2022-11-15T05:42:15;18.57;;;11.17;;
26277;SDS011;14000;52.056;8.510;2022-11-15T05:44:43;20.23;;;11.00;;
26277;SDS011;14000;52.056;8.510;2022-11-15T05:47:12;22.47;;;11.30;;
26277;SDS011;14000;52.056;8.510;2022-11-15T05:49:48;21.73;;;11.77;;
26277;SDS011;14000;52.056;8.510;2022-11-15T05:52:16;20.33;;;10.70;;
26277;SDS011;14000;52.056;8.510;2022-11-15T05:54:46;20.90;;;11.13;;
26277;SDS011;14000;52.056;8.510;2022-11-15T05:57:12;20.03;;;10.80;;
26277;SDS011;14000;52.056;8.510;2022-11-15T05:59:38;19.27;;;10.10;;
26277;SDS011;14000;52.056;8.510;2022-11-15T06:02:05;20.70;;;10.57;;
26277;SDS011;14000;52.056;8.510;2022-11-15T06:04:31;18.87;;;10.40;;
26277;SDS011;14000;52.056;8.510;2022-11-15T06:06:58;20.30;;;11.00;;
26277;SDS011;14000;52.056;8.510;2022-11-15T06:09:23;17.63;;;9.97;;
26277;SDS011;14000;52.056;8.510;2022-11-15T06:11:49;18.80;;;10.23;;
26277;SDS011;14000;52.056;8.510;2022-11-15T06:14:15;16.37;;;9.90;;
26277;SDS011;14000;52.056;8.510;2022-11-15T06:16:43;17.90;;;9.93;;
26277;SDS011;14000;52.056;8.510;2022-11-15T06:19:08;19.33;;;10.13;;
26277;SDS011;14000;52.056;8.510;2022-11-15T06:21:34;16.77;;;9.77;;
26277;SDS011;14000;52.056;8.510;2022-11-15T06:24:00;17.70;;;10.07;;
26277;SDS011;14000;52.056;8.510;2022-11-15T06:26:26;18.50;;;9.57;;
26277;SDS011;14000;52.056;8.510;2022-11-15T06:28:52;20.10;;;10.17;;
26277;SDS011;14000;52.056;8.510;2022-11-15T06:31:17;18.57;;;9.40;;
26277;SDS011;14000;52.056;8.510;2022-11-15T06:33:43;16.43;;;9.20;;
26277;SDS011;14000;52.056;8.510;2022-11-15T06:36:10;16.87;;;8.93;;
26277;SDS011;14000;52.056;8.510;2022-11-15T06:38:41;18.50;;;9.07;;
26277;SDS011;14000;52.056;8.510;2022-11-15T06:41:08;15.67;;;8.70;;
26277;SDS011;14000;52.056;8.510;2022-11-15T06:43:34;15.60;;;8.53;;
26277;SDS011;14000;52.056;8.510;2022-11-15T06:46:02;19.03;;;9.00;;
26277;SDS011;14000;52.056;8.510;2022-11-15T06:48:29;17.17;;;9.17;;
26277;SDS011;14000;52.056;8.510;2022-11-15T06:50:56;16.60;;;9.30;;
26277;SDS011;14000;52.056;8.510;2022-11-15T06:53:23;15.37;;;8.63;;
26277;SDS011;14000;52.056;8.510;2022-11-15T06:55:50;15.00;;;8.97;;
26277;SDS011;14000;52.056;8.510;2022-11-15T06:58:16;19.07;;;9.20;;
26277;SDS011;14000;52.056;8.510;2022-11-15T07:00:42;16.20;;;8.90;;
26277;SDS011;14000;52.056;8.510;2022-11-15T07:03:08;16.90;;;8.80;;
26277;SDS011;14000;52.056;8.510;2022-11-15T07:05:34;16.23;;;8.57;;
26277;SDS011;14000;52.056;8.510;2022-11-15T07:08:00;17.13;;;8.80;;
26277;SDS011;14000;52.056;8.510;2022-11-15T07:10:27;16.67;;;8.50;;
26277;SDS011;14000;52.056;8.510;2022-11-15T07:12:53;16.00;;;8.03;;
26277;SDS011;14000;52.056;8.510;2022-11-15T07:15:20;20.37;;;8.13;;
26277;SDS011;14000;52.056;8.510;2022-11-15T07:17:48;17.70;;;7.80;;
26277;SDS011;14000;52.056;8.510;2022-11-15T07:20:14;14.87;;;7.07;;
26277;SDS011;14000;52.056;8.510;2022-11-15T07:22:40;16.90;;;9.30;;
26277;SDS011;14000;52.056;8.510;2022-11-15T07:25:06;14.63;;;7.33;;
26277;SDS011;14000;52.056;8.510;2022-11-15T07:27:32;15.20;;;7.60;;
26277;SDS011;14000;52.056;8.510;2022-11-15T07:29:58;14.73;;;8.00;;
26277;SDS011;14000;52.056;8.510;2022-11-15T07:32:24;12.27;;;7.23;;
26277;SDS011;14000;52.056;8.510;2022-11-15T07:34:50;16.40;;;7.50;;
26277;SDS011;14000;52.056;8.510;2022-11-15T07:37:16;17.03;;;8.33;;
26277;SDS011;14000;52.056;8.510;2022-11-15T07:39:42;20.43;;;9.47;;
26277;SDS011;14000;52.056;8.510;2022-11-15T07:42:09;15.17;;;7.40;;
26277;SDS011;14000;52.056;8.510;2022-11-15T07:44:53;13.73;;;6.80;;
26277;SDS011;14000;52.056;8.510;2022-11-15T07:47:18;14.27;;;7.67;;
26277;SDS011;14000;52.056;8.510;2022-11-15T07:49:44;13.87;;;6.77;;
26277;SDS011;14000;52.056;8.510;2022-11-15T07:52:11;21.20;;;9.50;;
26277;SDS011;14000;52.056;8.510;2022-11-15T07:54:37;14.90;;;7.90;;
26277;SDS011;14000;52.056;8.510;2022-11-15T07:57:02;13.77;;;6.90;;
26277;SDS011;14000;52.056;8.510;2022-11-15T07:59:28;13.43;;;6.53;;
26277;SDS011;14000;52.056;8.510;2022-11-15T08:01:54;15.27;;;6.87;;
26277;SDS011;14000;52.056;8.510;2022-11-15T08:04:20;13.73;;;6.97;;
26277;SDS011;14000;52.056;8.510;2022-11-15T08:06:45;13.03;;;6.17;;
26277;SDS011;14000;52.056;8.510;2022-11-15T08:09:11;14.47;;;6.13;;
26277;SDS011;14000;52.056;8.510;2022-11-15T08:11:36;11.67;;;5.63;;
26277;SDS011;14000;52.056;8.510;2022-11-15T08:14:02;15.30;;;6.37;;
26277;SDS011;14000;52.056;8.510;2022-11-15T08:16:28;12.87;;;6.67;;
26277;SDS011;14000;52.056;8.510;2022-11-15T08:18:54;11.80;;;5.87;;
26277;SDS011;14000;52.056;8.510;2022-11-15T08:21:20;13.13;;;5.67;;
26277;SDS011;14000;52.056;8.510;2022-11-15T08:23:46;12.70;;;6.00;;
26277;SDS011;14000;52.056;8.510;2022-11-15T08:26:12;15.13;;;5.97;;
26277;SDS011;14000;52.056;8.510;2022-11-15T08:28:38;16.07;;;6.33;;
26277;SDS011;14000;52.056;8.510;2022-11-15T08:31:04;15.97;;;7.27;;
26277;SDS011;14000;52.056;8.510;2022-11-15T08:33:31;13.30;;;6.63;;
26277;SDS011;14000;52.056;8.510;2022-11-15T08:35:58;13.83;;;6.07;;
26277;SDS011;14000;52.056;8.510;2022-11-15T08:38:24;12.30;;;5.73;;
26277;SDS011;14000;52.056;8.510;2022-11-15T08:40:51;10.93;;;5.27;;
26277;SDS011;14000;52.056;8.510;2022-11-15T08:43:18;11.33;;;5.20;;
26277;SDS011;14000;52.056;8.510;2022-11-15T08:45:43;10.90;;;5.10;;
26277;SDS011;14000;52.056;8.510;2022-11-15T08:48:09;11.13;;;5.07;;
26277;SDS011;14000;52.056;8.510;2022-11-15T08:50:35;12.50;;;4.93;;
26277;SDS011;14000;52.056;8.510;2022-11-15T08:53:07;11.63;;;5.00;;
26277;SDS011;14000;52.056;8.510;2022-11-15T08:55:35;10.13;;;4.43;;
26277;SDS011;14000;52.056;8.510;2022-11-15T08:58:02;13.97;;;4.43;;
26277;SDS011;14000;52.056;8.510;2022-11-15T09:00:28;10.13;;;4.03;;
26277;SDS011;14000;52.056;8.510;2022-11-15T09:02:54;10.67;;;4.47;;
26277;SDS011;14000;52.056;8.510;2022-11-15T09:05:20;11.53;;;4.37;;
26277;SDS011;14000;52.056;8.510;2022-11-15T09:07:46;8.60;;;3.60;;
26277;SDS011;14000;52.056;8.510;2022-11-15T09:10:11;9.40;;;3.80;;
26277;SDS011;14000;52.056;8.510;2022-11-15T09:12:37;8.40;;;3.60;;
26277;SDS011;14000;52.056;8.510;2022-11-15T09:15:03;8.67;;;3.57;;
26277;SDS011;14000;52.056;8.510;2022-11-15T09:17:30;8.90;;;3.07;;
26277;SDS011;14000;52.056;8.510;2022-11-15T09:19:55;8.37;;;3.43;;
26277;SDS011;14000;52.056;8.510;2022-11-15T09:22:21;8.63;;;3.20;;
26277;SDS011;14000;52.056;8.510;2022-11-15T09:24:49;15.20;;;6.70;;
26277;SDS011;14000;52.056;8.510;2022-11-15T09:27:15;10.67;;;4.40;;
26277;SDS011;14000;52.056;8.510;2022-11-15T09:29:41;11.97;;;5.00;;
26277;SDS011;14000;52.056;8.510;2022-11-15T09:32:06;8.47;;;3.07;;
26277;SDS011;14000;52.056;8.510;2022-11-15T09:34:32;7.30;;;2.80;;
26277;SDS011;14000;52.056;8.510;2022-11-15T09:36:57;8.87;;;3.03;;
26277;SDS011;14000;52.056;8.510;2022-11-15T09:39:23;8.17;;;2.57;;
26277;SDS011;14000;52.056;8.510;2022-11-15T09:41:58;8.60;;;3.00;;
26277;SDS011;14000;52.056;8.510;2022-11-15T09:47:38;9.03;;;3.47;;
26277;SDS011;14000;52.056;8.510;2022-11-15T09:53:18;8.03;;;2.70;;
26277;SDS011;14000;52.056;8.510;2022-11-15T09:56:03;7.67;;;2.57;;
26277;SDS011;14000;52.056;8.510;2022-11-15T09:58:39;9.97;;;2.87;;
26277;SDS011;14000;52.056;8.510;2022-11-15T10:01:30;8.03;;;2.47;;
26277;SDS011;14000;52.056;8.510;2022-11-15T10:04:21;10.13;;;2.80;;
26277;SDS011;14000;52.056;8.510;2022-11-15T10:07:23;8.10;;;2.60;;
26277;SDS011;14000;52.056;8.510;2022-11-15T10:09:54;8.50;;;2.70;;
26277;SDS011;14000;52.056;8.510;2022-11-15T10:12:40;8.57;;;2.57;;
26277;SDS011;14000;52.056;8.510;2022-11-15T10:15:12;7.27;;;1.90;;
26277;SDS011;14000;52.056;8.510;2022-11-15T10:17:54;8.37;;;2.53;;
26277;SDS011;14000;52.056;8.510;2022-11-15T10:20:34;11.23;;;4.70;;
26277;SDS011;14000;52.056;8.510;2022-11-15T10:23:10;8.73;;;2.37;;
26277;SDS011;14000;52.056;8.510;2022-11-15T10:25:38;7.67;;;1.90;;
26277;SDS011;14000;52.056;8.510;2022-11-15T10:28:09;9.57;;;2.43;;
26277;SDS011;14000;52.056;8.510;2022-11-15T10:30:41;8.40;;;2.57;;
26277;SDS011;14000;52.056;8.510;2022-11-15T10:47:32;6.17;;;1.70;;
26277;SDS011;14000;52.056;8.510;2022-11-15T10:50:25;6.10;;;1.60;;
26277;SDS011;14000;52.056;8.510;2022-11-15T10:52:52;6.03;;;1.53;;
26277;SDS011;14000;52.056;8.510;2022-11-15T10:55:25;5.87;;;1.77;;
26277;SDS011;14000;52.056;8.510;2022-11-15T10:57:55;7.37;;;1.70;;
26277;SDS011;14000;52.056;8.510;2022-11-15T11:00:33;6.23;;;1.60;;
26277;SDS011;14000;52.056;8.510;2022-11-15T11:03:05;5.70;;;1.47;;
26277;SDS011;14000;52.056;8.510;2022-11-15T11:05:48;6.20;;;1.60;;
26277;SDS011;14000;52.056;8.510;2022-11-15T11:08:27;6.10;;;1.40;;
26277;SDS011;14000;52.056;8.510;2022-11-15T11:10:57;5.60;;;1.57;;
26277;SDS011;14000;52.056;8.510;2022-11-15T11:13:31;5.43;;;1.60;;
26277;SDS011;14000;52.056;8.510;2022-11-15T11:16:06;8.27;;;1.67;;
26277;SDS011;14000;52.056;8.510;2022-11-15T11:18:52;7.43;;;2.10;;
26277;SDS011;14000;52.056;8.510;2022-11-15T11:24:44;6.33;;;1.63;;
26277;SDS011;14000;52.056;8.510;2022-11-15T11:27:28;6.93;;;1.60;;
26277;SDS011;14000;52.056;8.510;2022-11-15T11:30:09;6.67;;;1.47;;
26277;SDS011;14000;52.056;8.510;2022-11-15T11:35:29;6.53;;;1.37;;
26277;SDS011;14000;52.056;8.510;2022-11-15T11:38:17;4.80;;;1.37;;
26277;SDS011;14000;52.056;8.510;2022-11-15T11:46:25;6.03;;;1.67;;
26277;SDS011;14000;52.056;8.510;2022-11-15T11:49:06;6.73;;;1.80;;
26277;SDS011;14000;52.056;8.510;2022-11-15T11:51:50;6.13;;;1.50;;
26277;SDS011;14000;52.056;8.510;2022-11-15T11:56:59;8.30;;;2.30;;
26277;SDS011;14000;52.056;8.510;2022-11-15T11:59:36;7.57;;;2.00;;
26277;SDS011;14000;52.056;8.510;2022-11-15T12:02:29;7.67;;;1.97;;
26277;SDS011;14000;52.056;8.510;2022-11-15T12:04:54;7.13;;;2.07;;
26277;SDS011;14000;52.056;8.510;2022-11-15T12:07:29;7.87;;;2.17;;
26277;SDS011;14000;52.056;8.510;2022-11-15T12:09:59;7.63;;;2.30;;
26277;SDS011;14000;52.056;8.510;2022-11-15T12:17:45;6.60;;;2.07;;
26277;SDS011;14000;52.056;8.510;2022-11-15T12:20:17;8.07;;;2.60;;
26277;SDS011;14000;52.056;8.510;2022-11-15T12:22:55;7.70;;;2.13;;
26277;SDS011;14000;52.056;8.510;2022-11-15T12:28:07;7.80;;;1.90;;
26277;SDS011;14000;52.056;8.510;2022-11-15T12:30:47;7.73;;;1.90;;
26277;SDS011;14000;52.056;8.510;2022-11-15T12:33:32;8.33;;;2.00;;
26277;SDS011;14000;52.056;8.510;2022-11-15T12:36:10;8.63;;;1.97;;
26277;SDS011;14000;52.056;8.510;2022-11-15T12:41:29;10.10;;;2.00;;
26277;SDS011;14000;52.056;8.510;2022-11-15T12:44:00;7.10;;;1.93;;
26277;SDS011;14000;52.056;8.510;2022-11-15T12:57:13;7.10;;;1.80;;
26277;SDS011;14000;52.056;8.510;2022-11-15T13:02:51;7.33;;;1.83;;
26277;SDS011;14000;52.056;8.510;2022-11-15T13:05:53;5.97;;;1.80;;
26277;SDS011;14000;52.056;8.510;2022-11-15T13:08:38;5.40;;;1.60;;
26277;SDS011;14000;52.056;8.510;2022-11-15T13:17:32;8.23;;;1.77;;
26277;SDS011;14000;52.056;8.510;2022-11-15T13:30:39;5.07;;;1.33;;
26277;SDS011;14000;52.056;8.510;2022-11-15T13:33:16;8.20;;;1.60;;
26277;SDS011;14000;52.056;8.510;2022-11-15T13:35:48;6.63;;;1.63;;
26277;SDS011;14000;52.056;8.510;2022-11-15T13:40:56;10.03;;;3.47;;
26277;SDS011;14000;52.056;8.510;2022-11-15T13:48:46;6.93;;;1.70;;
26277;SDS011;14000;52.056;8.510;2022-11-15T13:53:57;7.83;;;2.10;;
26277;SDS011;14000;52.056;8.510;2022-11-15T13:56:27;8.87;;;3.17;;
26277;SDS011;14000;52.056;8.510;2022-11-15T13:58:53;7.23;;;1.90;;
26277;SDS011;14000;52.056;8.510;2022-11-15T14:01:20;6.77;;;1.70;;
26277;SDS011;14000;52.056;8.510;2022-11-15T14:03:55;7.73;;;1.90;;
26277;SDS011;14000;52.056;8.510;2022-11-15T14:06:23;7.93;;;1.97;;
26277;SDS011;14000;52.056;8.510;2022-11-15T14:11:36;7.20;;;2.00;;
26277;SDS011;14000;52.056;8.510;2022-11-15T14:19:09;10.23;;;2.30;;
26277;SDS011;14000;52.056;8.510;2022-11-15T14:21:37;8.10;;;2.13;;
26277;SDS011;14000;52.056;8.510;2022-11-15T14:24:23;8.47;;;2.50;;
26277;SDS011;14000;52.056;8.510;2022-11-15T14:26:56;8.70;;;2.13;;
26277;SDS011;14000;52.056;8.510;2022-11-15T14:29:25;7.43;;;2.30;;
26277;SDS011;14000;52.056;8.510;2022-11-15T14:32:14;8.07;;;2.30;;
26277;SDS011;14000;52.056;8.510;2022-11-15T14:34:39;6.70;;;2.30;;
26277;SDS011;14000;52.056;8.510;2022-11-15T14:37:08;9.10;;;2.40;;
26277;SDS011;14000;52.056;8.510;2022-11-15T14:39:53;9.30;;;2.67;;
26277;SDS011;14000;52.056;8.510;2022-11-15T14:42:20;9.43;;;3.67;;
26277;SDS011;14000;52.056;8.510;2022-11-15T14:44:47;9.33;;;2.47;;
26277;SDS011;14000;52.056;8.510;2022-11-15T14:47:13;8.57;;;2.63;;
26277;SDS011;14000;52.056;8.510;2022-11-15T14:49:39;8.00;;;2.40;;
26277;SDS011;14000;52.056;8.510;2022-11-15T14:55:01;9.17;;;2.57;;
26277;SDS011;14000;52.056;8.510;2022-11-15T14:57:28;9.67;;;2.67;;
26277;SDS011;14000;52.056;8.510;2022-11-15T14:59:55;9.17;;;2.80;;
26277;SDS011;14000;52.056;8.510;2022-11-15T15:02:22;9.87;;;3.13;;
26277;SDS011;14000;52.056;8.510;2022-11-15T15:04:50;9.63;;;2.90;;
26277;SDS011;14000;52.056;8.510;2022-11-15T15:07:16;10.30;;;3.97;;
26277;SDS011;14000;52.056;8.510;2022-11-15T15:09:42;10.57;;;4.20;;
26277;SDS011;14000;52.056;8.510;2022-11-15T15:12:19;11.90;;;3.47;;
26277;SDS011;14000;52.056;8.510;2022-11-15T15:14:46;11.17;;;3.13;;
26277;SDS011;14000;52.056;8.510;2022-11-15T15:17:13;10.03;;;3.07;;
26277;SDS011;14000;52.056;8.510;2022-11-15T15:19:39;9.20;;;2.90;;
26277;SDS011;14000;52.056;8.510;2022-11-15T15:22:05;8.80;;;3.10;;
26277;SDS011;14000;52.056;8.510;2022-11-15T15:24:34;9.63;;;2.63;;
26277;SDS011;14000;52.056;8.510;2022-11-15T15:27:00;9.40;;;2.93;;
26277;SDS011;14000;52.056;8.510;2022-11-15T15:29:25;9.60;;;2.90;;
26277;SDS011;14000;52.056;8.510;2022-11-15T15:31:51;10.53;;;3.00;;
26277;SDS011;14000;52.056;8.510;2022-11-15T15:34:16;9.07;;;2.90;;
26277;SDS011;14000;52.056;8.510;2022-11-15T15:36:42;8.63;;;2.80;;
26277;SDS011;14000;52.056;8.510;2022-11-15T15:39:08;8.97;;;2.70;;
26277;SDS011;14000;52.056;8.510;2022-11-15T15:41:36;10.03;;;3.17;;
26277;SDS011;14000;52.056;8.510;2022-11-15T15:44:02;12.47;;;3.00;;
26277;SDS011;14000;52.056;8.510;2022-11-15T15:46:27;10.63;;;2.93;;
26277;SDS011;14000;52.056;8.510;2022-11-15T15:48:53;8.73;;;2.70;;
26277;SDS011;14000;52.056;8.510;2022-11-15T15:51:19;9.10;;;2.47;;
26277;SDS011;14000;52.056;8.510;2022-11-15T15:53:44;12.07;;;2.80;;
26277;SDS011;14000;52.056;8.510;2022-11-15T15:56:10;13.97;;;4.03;;
26277;SDS011;14000;52.056;8.510;2022-11-15T15:58:36;15.33;;;6.67;;
26277;SDS011;14000;52.056;8.510;2022-11-15T16:01:01;13.07;;;3.40;;
26277;SDS011;14000;52.056;8.510;2022-11-15T16:03:27;9.87;;;3.50;;
26277;SDS011;14000;52.056;8.510;2022-11-15T16:05:53;9.77;;;3.27;;
26277;SDS011;14000;52.056;8.510;2022-11-15T16:08:20;8.53;;;2.80;;
26277;SDS011;14000;52.056;8.510;2022-11-15T16:10:47;9.83;;;4.43;;
26277;SDS011;14000;52.056;8.510;2022-11-15T16:13:13;11.90;;;4.93;;
26277;SDS011;14000;52.056;8.510;2022-11-15T16:15:39;10.03;;;4.00;;
26277;SDS011;14000;52.056;8.510;2022-11-15T16:18:06;9.83;;;3.70;;
26277;SDS011;14000;52.056;8.510;2022-11-15T16:20:38;9.63;;;3.57;;
26277;SDS011;14000;52.056;8.510;2022-11-15T16:23:13;14.03;;;4.33;;
26277;SDS011;14000;52.056;8.510;2022-11-15T16:30:58;9.83;;;3.00;;
26277;SDS011;14000;52.056;8.510;2022-11-15T16:33:30;8.40;;;2.60;;
26277;SDS011;14000;52.056;8.510;2022-11-15T16:35:56;8.47;;;2.83;;
26277;SDS011;14000;52.056;8.510;2022-11-15T16:38:21;9.83;;;3.40;;
26277;SDS011;14000;52.056;8.510;2022-11-15T16:40:47;10.03;;;3.10;;
26277;SDS011;14000;52.056;8.510;2022-11-15T16:43:13;8.93;;;3.00;;
26277;SDS011;14000;52.056;8.510;2022-11-15T16:45:39;8.30;;;2.77;;
26277;SDS011;14000;52.056;8.510;2022-11-15T16:48:04;13.00;;;5.00;;
26277;SDS011;14000;52.056;8.510;2022-11-15T16:50:31;11.47;;;4.00;;